createdAt,value
2023-07-03T00:01:27.555Z,13.50
2023-07-03T00:06:30.577Z,11.53
2023-07-03T00:11:34.324Z,11.87
2023-07-03T00:16:37.059Z,14.13
2023-07-03T00:21:45.019Z,14.38
2023-07-03T00:26:47.625Z,12.30
2023-07-03T00:31:50.389Z,11.85
2023-07-03T00:36:53.160Z,10.90
2023-07-03T00:41:55.777Z,10.10
2023-07-03T00:46:58.386Z,11.35
2023-07-03T00:52:04.075Z,11.93
2023-07-03T00:57:07.185Z,11.00
2023-07-03T01:02:19.737Z,14.10
2023-07-03T01:07:32.525Z,11.32
2023-07-03T01:12:40.114Z,9.82
2023-07-03T01:17:46.055Z,13.20
2023-07-03T01:23:07.825Z,12.60
2023-07-03T01:28:14.108Z,10.75
2023-07-03T01:33:23.102Z,11.50
2023-07-03T01:38:28.251Z,12.77
2023-07-03T01:43:31.987Z,15.38
2023-07-03T01:48:35.501Z,10.77
2023-07-03T01:59:26.091Z,12.45
2023-07-03T02:04:51.955Z,12.55
2023-07-03T02:09:57.698Z,11.20
2023-07-03T02:15:05.463Z,12.10
2023-07-03T02:20:18.234Z,9.80
2023-07-03T02:25:23.033Z,13.67
2023-07-03T02:30:25.595Z,9.82
2023-07-03T02:35:29.020Z,12.13
2023-07-03T02:40:31.570Z,9.50
2023-07-03T02:45:39.404Z,14.13
2023-07-03T02:50:44.214Z,11.20
2023-07-03T02:55:50.259Z,11.77
2023-07-03T03:00:58.102Z,9.73
2023-07-03T03:06:00.995Z,9.00
2023-07-03T03:11:04.337Z,10.18
2023-07-03T03:16:07.777Z,10.00
2023-07-03T03:21:10.573Z,13.48
2023-07-03T03:26:13.579Z,9.70
2023-07-03T03:31:16.584Z,9.93
2023-07-03T03:36:27.863Z,9.57
2023-07-03T03:41:31.162Z,11.50
2023-07-03T03:46:36.021Z,8.45
2023-07-03T03:51:39.413Z,8.03
2023-07-03T03:56:42.202Z,8.02
2023-07-03T04:01:46.560Z,11.52
2023-07-03T04:06:49.270Z,10.47
2023-07-03T04:11:52.179Z,8.77
2023-07-03T04:16:58.719Z,10.15
2023-07-03T04:22:02.314Z,8.53
2023-07-03T04:27:05.184Z,10.50
2023-07-03T04:32:08.282Z,10.80
2023-07-03T04:37:11.112Z,10.15
2023-07-03T04:42:15.184Z,8.07
2023-07-03T04:47:20.265Z,8.43
2023-07-03T04:52:28.905Z,9.23
2023-07-03T04:57:31.649Z,11.50
2023-07-03T05:02:34.208Z,10.98
2023-07-03T05:07:36.785Z,8.68
2023-07-03T05:12:39.852Z,10.87
2023-07-03T05:17:46.124Z,9.67
2023-07-03T05:22:48.810Z,8.07
2023-07-03T05:27:51.414Z,10.23
2023-07-03T05:32:54.108Z,7.60
2023-07-03T05:37:57.772Z,9.80
2023-07-03T05:43:00.294Z,7.18
2023-07-03T05:48:03.697Z,8.67
2023-07-03T05:53:06.757Z,8.45
2023-07-03T05:58:10.093Z,7.32
2023-07-03T06:03:18.526Z,10.60
2023-07-03T06:08:24.101Z,7.80
2023-07-03T06:13:27.878Z,7.85
2023-07-03T06:18:30.436Z,6.80
2023-07-03T06:23:35.347Z,7.27
2023-07-03T06:28:38.090Z,7.60
2023-07-03T06:33:40.630Z,8.48
2023-07-03T06:38:43.246Z,7.17
2023-07-03T06:43:45.952Z,8.90
2023-07-03T06:48:48.517Z,8.25
2023-07-03T06:53:51.176Z,8.67
2023-07-03T06:58:53.941Z,8.40
2023-07-03T07:03:56.689Z,8.38
2023-07-03T07:09:00.817Z,8.20
2023-07-03T07:14:06.042Z,8.47
2023-07-03T07:19:11.074Z,9.05
2023-07-03T07:24:15.680Z,8.10
2023-07-03T07:29:18.516Z,9.13
2023-07-03T07:34:21.149Z,8.07
2023-07-03T07:39:26.318Z,8.90
2023-07-03T07:44:29.479Z,8.80
2023-07-03T07:49:32.085Z,8.80
2023-07-03T07:54:35.086Z,9.38
2023-07-03T07:59:38.033Z,10.52
2023-07-03T08:04:40.897Z,7.70
2023-07-03T08:09:44.203Z,7.72
2023-07-03T08:14:46.690Z,8.68
2023-07-03T08:19:49.325Z,10.97
2023-07-03T08:24:51.902Z,9.40
2023-07-03T08:29:56.092Z,8.27
2023-07-03T08:40:08.432Z,8.37
2023-07-03T08:45:16.928Z,8.85
2023-07-03T08:50:35.805Z,9.40
2023-07-03T08:55:48.544Z,8.30
2023-07-03T09:01:12.102Z,8.13
2023-07-03T09:06:24.531Z,9.13
2023-07-03T09:11:30.069Z,8.80
2023-07-03T09:16:32.829Z,8.15
2023-07-03T09:21:37.841Z,9.05
2023-07-03T09:26:45.446Z,9.53
2023-07-03T09:31:48.041Z,8.57
2023-07-03T09:37:00.752Z,8.15
2023-07-03T09:42:09.625Z,9.93
2023-07-03T09:47:27.677Z,7.57
2023-07-03T09:52:30.461Z,9.23
2023-07-03T09:57:35.341Z,9.68
2023-07-03T10:07:46.146Z,9.38
2023-07-03T10:13:04.614Z,9.13
2023-07-03T10:18:22.116Z,10.97
2023-07-03T10:23:28.862Z,9.03
2023-07-03T10:28:37.289Z,9.77
2023-07-03T10:33:45.828Z,9.95
2023-07-03T10:39:07.225Z,7.63
2023-07-03T10:44:14.615Z,7.22
2023-07-03T10:49:28.220Z,7.80
2023-07-03T10:54:36.057Z,9.00
2023-07-03T10:59:46.882Z,10.00
2023-07-03T11:04:59.280Z,7.47
2023-07-03T11:10:32.972Z,8.53
2023-07-03T11:15:57.334Z,7.47
2023-07-03T11:31:27.265Z,8.10
2023-07-03T11:36:50.705Z,9.05
2023-07-03T11:47:17.252Z,10.20
2023-07-03T11:52:31.535Z,7.93
2023-07-03T11:57:38.543Z,9.13
2023-07-03T12:02:41.098Z,9.98
2023-07-03T12:07:48.438Z,9.00
2023-07-03T12:13:45.254Z,8.88
2023-07-03T12:19:03.660Z,7.65
2023-07-03T12:24:20.069Z,7.23
2023-07-03T12:29:23.748Z,10.88
2023-07-03T12:34:28.060Z,7.70
2023-07-03T12:39:33.321Z,9.07
2023-07-03T12:44:36.007Z,7.82
2023-07-03T12:50:01.916Z,8.77
2023-07-03T12:55:14.707Z,9.20
2023-07-03T13:00:26.528Z,7.67
2023-07-03T13:05:33.832Z,7.75
2023-07-03T13:10:37.628Z,8.52
2023-07-03T13:15:42.949Z,8.03
2023-07-03T13:20:57.560Z,8.57
2023-07-03T13:26:01.694Z,8.25
2023-07-03T13:31:15.269Z,8.57
2023-07-03T13:36:32.430Z,8.52
2023-07-03T13:41:36.110Z,8.80
2023-07-03T13:46:40.274Z,8.18
2023-07-03T13:51:48.711Z,8.77
2023-07-03T13:56:51.498Z,9.43
2023-07-03T14:01:54.068Z,7.95
2023-07-03T14:06:56.586Z,7.93
2023-07-03T14:11:59.182Z,10.82
2023-07-03T14:17:04.423Z,10.35
2023-07-03T14:22:07.039Z,10.90
2023-07-03T14:27:10.432Z,9.68
2023-07-03T14:32:13.199Z,7.88
2023-07-03T14:37:18.215Z,12.80
2023-07-03T14:42:21.001Z,9.40
2023-07-03T14:47:23.713Z,10.30
2023-07-03T14:52:35.942Z,9.88
2023-07-03T14:57:39.023Z,8.70
2023-07-03T15:02:43.564Z,13.73
2023-07-03T15:07:47.175Z,10.80
2023-07-03T15:12:49.967Z,8.73
2023-07-03T15:17:52.969Z,9.10
2023-07-03T15:22:55.676Z,8.82
2023-07-03T15:28:00.820Z,7.87
2023-07-03T15:33:03.360Z,13.20
2023-07-03T15:38:06.227Z,10.52
2023-07-03T15:43:09.140Z,12.88
2023-07-03T15:48:12.089Z,10.13
2023-07-03T15:53:14.712Z,10.40
2023-07-03T15:58:17.337Z,10.15
2023-07-03T16:03:20.097Z,11.43
2023-07-03T16:08:22.767Z,10.73
2023-07-03T16:13:27.958Z,9.00
2023-07-03T16:18:32.251Z,15.40
2023-07-03T16:23:37.332Z,24.10
2023-07-03T16:28:40.777Z,15.77
2023-07-03T16:33:45.362Z,10.82
2023-07-03T16:38:53.238Z,16.63
2023-07-03T16:43:57.855Z,13.68
2023-07-03T16:49:00.528Z,11.30
2023-07-03T16:54:04.554Z,15.37
2023-07-03T16:59:07.278Z,11.93
2023-07-03T17:04:09.952Z,12.35
2023-07-03T17:09:13.138Z,11.40
2023-07-03T17:14:15.860Z,8.93
2023-07-03T17:19:18.548Z,10.07
2023-07-03T17:24:21.242Z,10.40
2023-07-03T17:29:24.031Z,11.13
2023-07-03T17:34:26.636Z,12.80
2023-07-03T17:39:29.273Z,9.85
2023-07-03T17:44:32.590Z,13.57
2023-07-03T17:49:37.468Z,12.15
2023-07-03T17:54:40.662Z,12.00
2023-07-03T17:59:43.321Z,15.50
2023-07-03T18:04:46.057Z,10.97
2023-07-03T18:09:48.876Z,13.90
2023-07-03T18:14:51.413Z,12.18
2023-07-03T18:19:54.204Z,14.17
2023-07-03T18:24:56.700Z,15.45
2023-07-03T18:29:59.284Z,12.73
2023-07-03T18:35:02.213Z,12.80
2023-07-03T18:40:07.490Z,13.20
2023-07-03T18:45:10.242Z,14.88
2023-07-03T18:50:14.481Z,15.73
2023-07-03T18:55:17.357Z,13.60
2023-07-03T19:00:20.242Z,14.57
2023-07-03T19:05:22.781Z,13.77
2023-07-03T19:10:25.349Z,12.23
2023-07-03T19:15:28.008Z,13.75
2023-07-03T19:20:30.645Z,12.43
2023-07-03T19:25:33.589Z,19.73
2023-07-03T19:30:36.581Z,18.08
2023-07-03T19:35:39.441Z,17.58
2023-07-03T19:40:42.626Z,16.03
2023-07-03T19:45:45.676Z,15.23
2023-07-03T19:50:49.481Z,15.45
2023-07-03T19:55:52.265Z,24.35
2023-07-03T20:00:57.069Z,19.93
2023-07-03T20:05:59.824Z,18.83
2023-07-03T20:11:03.356Z,18.45
2023-07-03T20:16:06.252Z,15.63
2023-07-03T20:21:09.184Z,18.45
2023-07-03T20:26:11.822Z,18.23
2023-07-03T20:31:16.280Z,11.37
2023-07-03T20:36:19.764Z,11.93
2023-07-03T20:41:22.497Z,12.48
2023-07-03T20:46:25.669Z,13.27
2023-07-03T20:51:33.700Z,13.17
2023-07-03T20:56:38.823Z,14.18
2023-07-03T21:01:41.493Z,12.27
2023-07-03T21:06:46.121Z,11.13
2023-07-03T21:11:49.255Z,12.40
2023-07-03T21:16:54.777Z,14.80
2023-07-03T21:21:57.354Z,16.40
2023-07-03T21:26:59.839Z,11.13
2023-07-03T21:32:02.513Z,14.95
2023-07-03T21:37:07.404Z,15.75
2023-07-03T21:42:10.190Z,18.53
2023-07-03T21:47:14.505Z,21.58
2023-07-03T21:52:17.020Z,17.15
2023-07-03T21:57:20.653Z,17.30
2023-07-03T22:02:23.257Z,14.82
2023-07-03T22:07:25.788Z,22.30
2023-07-03T22:12:28.720Z,14.97
2023-07-03T22:17:31.605Z,13.73
2023-07-03T22:22:36.586Z,15.02
2023-07-03T22:27:39.295Z,23.85
2023-07-03T22:32:42.183Z,19.67
2023-07-03T22:37:45.499Z,17.70
2023-07-03T22:42:48.850Z,19.50
2023-07-03T22:47:54.996Z,17.07
2023-07-03T22:52:58.684Z,17.23
2023-07-03T22:58:01.499Z,20.80
2023-07-03T23:03:04.249Z,17.87
2023-07-03T23:08:06.990Z,20.47
2023-07-03T23:13:09.587Z,24.70
2023-07-03T23:18:13.884Z,19.85
2023-07-03T23:23:17.083Z,24.53
2023-07-03T23:28:20.363Z,20.38
2023-07-03T23:33:23.197Z,21.85
2023-07-03T23:38:27.434Z,24.07
2023-07-03T23:43:30.166Z,19.65
2023-07-03T23:48:33.206Z,22.52
2023-07-03T23:53:44.369Z,22.37
2023-07-03T23:58:49.759Z,23.47
